Boston University, Massachusetts
Current Conditions -  °F | °C
As of 6:15 PM on Saturday 20 Dec 2014 (Local Time) from KBOS Reporting Station
Light Snow Light Snow  
Wind Chill: 26°   Ceiling: 2400
Heat Index: 34°   Visibility: 8mi
Dew Point: 28°   Wind: 10mph
Humidity: 81%   Direction: 360°N
Pressure: 30.29"   Gusts: NA
Location:  42.3469°N, 71.1025°W
Report Text: KBOS 202315Z 36009KT 8SM -SN SCT012 BKN024 OVC032 01/M02 A3029 RMK AO2 P0000
Loading
Personal Weather Stations






























Interactive Weather Map New forecast layout! Learn more

10-Day Weather Forecast

Advertisements
Track Severe Weather on mobile